sensor_id;sensor_type;location;lat;lon;timestamp;P1;durP1;ratioP1;P2;durP2;ratioP2
45077;SDS011;60508;42.622;25.416;2023-05-10T00:01:28;10.52;;;3.90;;
45077;SDS011;60508;42.622;25.416;2023-05-10T00:03:54;7.80;;;3.08;;
45077;SDS011;60508;42.622;25.416;2023-05-10T00:06:21;11.70;;;3.78;;
45077;SDS011;60508;42.622;25.416;2023-05-10T00:08:47;6.20;;;3.22;;
45077;SDS011;60508;42.622;25.416;2023-05-10T00:11:14;3.63;;;2.92;;
45077;SDS011;60508;42.622;25.416;2023-05-10T00:13:40;13.20;;;3.78;;
45077;SDS011;60508;42.622;25.416;2023-05-10T00:16:06;7.35;;;4.10;;
45077;SDS011;60508;42.622;25.416;2023-05-10T00:18:32;15.00;;;4.32;;
45077;SDS011;60508;42.622;25.416;2023-05-10T00:20:58;9.75;;;4.65;;
45077;SDS011;60508;42.622;25.416;2023-05-10T00:23:25;7.20;;;3.72;;
45077;SDS011;60508;42.622;25.416;2023-05-10T00:25:51;5.25;;;3.55;;
45077;SDS011;60508;42.622;25.416;2023-05-10T00:28:17;7.65;;;3.15;;
45077;SDS011;60508;42.622;25.416;2023-05-10T00:30:44;3.92;;;3.33;;
45077;SDS011;60508;42.622;25.416;2023-05-10T00:33:10;7.95;;;4.13;;
45077;SDS011;60508;42.622;25.416;2023-05-10T00:35:37;6.93;;;3.10;;
45077;SDS011;60508;42.622;25.416;2023-05-10T00:38:03;6.72;;;4.32;;
45077;SDS011;60508;42.622;25.416;2023-05-10T00:40:29;6.88;;;3.90;;
45077;SDS011;60508;42.622;25.416;2023-05-10T00:42:59;7.25;;;3.78;;
45077;SDS011;60508;42.622;25.416;2023-05-10T00:45:26;8.50;;;3.13;;
45077;SDS011;60508;42.622;25.416;2023-05-10T00:47:52;5.93;;;3.78;;
45077;SDS011;60508;42.622;25.416;2023-05-10T00:50:21;14.63;;;3.45;;
45077;SDS011;60508;42.622;25.416;2023-05-10T00:52:48;6.22;;;3.33;;
45077;SDS011;60508;42.622;25.416;2023-05-10T00:55:14;10.55;;;3.30;;
45077;SDS011;60508;42.622;25.416;2023-05-10T00:57:40;5.55;;;3.97;;
45077;SDS011;60508;42.622;25.416;2023-05-10T01:00:08;5.75;;;3.63;;
45077;SDS011;60508;42.622;25.416;2023-05-10T01:02:35;7.57;;;3.60;;
45077;SDS011;60508;42.622;25.416;2023-05-10T01:05:01;5.53;;;3.72;;
45077;SDS011;60508;42.622;25.416;2023-05-10T01:07:29;5.55;;;3.22;;
45077;SDS011;60508;42.622;25.416;2023-05-10T01:09:56;9.80;;;3.85;;
45077;SDS011;60508;42.622;25.416;2023-05-10T01:12:23;4.78;;;3.22;;
45077;SDS011;60508;42.622;25.416;2023-05-10T01:14:49;4.18;;;2.97;;
45077;SDS011;60508;42.622;25.416;2023-05-10T01:17:15;4.70;;;3.25;;
45077;SDS011;60508;42.622;25.416;2023-05-10T01:19:42;4.97;;;3.72;;
45077;SDS011;60508;42.622;25.416;2023-05-10T01:35:45;7.65;;;3.08;;
45077;SDS011;60508;42.622;25.416;2023-05-10T01:41:31;7.13;;;3.53;;
45077;SDS011;60508;42.622;25.416;2023-05-10T01:46:43;9.52;;;3.13;;
45077;SDS011;60508;42.622;25.416;2023-05-10T01:49:14;10.85;;;3.42;;
45077;SDS011;60508;42.622;25.416;2023-05-10T01:51:50;5.25;;;4.75;;
45077;SDS011;60508;42.622;25.416;2023-05-10T01:54:20;4.53;;;4.00;;
45077;SDS011;60508;42.622;25.416;2023-05-10T01:56:50;8.10;;;4.25;;
45077;SDS011;60508;42.622;25.416;2023-05-10T01:59:22;9.13;;;3.72;;
45077;SDS011;60508;42.622;25.416;2023-05-10T02:01:53;9.82;;;3.58;;
45077;SDS011;60508;42.622;25.416;2023-05-10T02:04:21;12.13;;;4.55;;
45077;SDS011;60508;42.622;25.416;2023-05-10T02:06:49;8.50;;;3.07;;
45077;SDS011;60508;42.622;25.416;2023-05-10T02:11:45;4.38;;;3.40;;
45077;SDS011;60508;42.622;25.416;2023-05-10T02:14:14;4.43;;;4.03;;
45077;SDS011;60508;42.622;25.416;2023-05-10T02:16:42;10.43;;;3.60;;
45077;SDS011;60508;42.622;25.416;2023-05-10T02:19:08;7.22;;;3.58;;
45077;SDS011;60508;42.622;25.416;2023-05-10T02:21:37;7.30;;;3.23;;
45077;SDS011;60508;42.622;25.416;2023-05-10T02:24:05;10.00;;;4.78;;
45077;SDS011;60508;42.622;25.416;2023-05-10T02:26:35;10.18;;;5.68;;
45077;SDS011;60508;42.622;25.416;2023-05-10T02:29:03;7.90;;;4.90;;
45077;SDS011;60508;42.622;25.416;2023-05-10T02:31:32;6.80;;;3.87;;
45077;SDS011;60508;42.622;25.416;2023-05-10T02:33:59;5.72;;;3.45;;
45077;SDS011;60508;42.622;25.416;2023-05-10T02:36:27;11.25;;;3.30;;
45077;SDS011;60508;42.622;25.416;2023-05-10T02:38:54;6.85;;;4.07;;
45077;SDS011;60508;42.622;25.416;2023-05-10T02:41:23;7.43;;;3.58;;
45077;SDS011;60508;42.622;25.416;2023-05-10T02:43:51;7.90;;;3.97;;
45077;SDS011;60508;42.622;25.416;2023-05-10T02:46:23;4.18;;;3.58;;
45077;SDS011;60508;42.622;25.416;2023-05-10T02:48:49;6.55;;;3.90;;
45077;SDS011;60508;42.622;25.416;2023-05-10T02:51:15;10.57;;;5.75;;
45077;SDS011;60508;42.622;25.416;2023-05-10T02:53:43;10.17;;;3.50;;
45077;SDS011;60508;42.622;25.416;2023-05-10T02:56:22;6.20;;;3.55;;
45077;SDS011;60508;42.622;25.416;2023-05-10T02:58:53;9.50;;;5.25;;
45077;SDS011;60508;42.622;25.416;2023-05-10T03:01:19;5.63;;;3.72;;
45077;SDS011;60508;42.622;25.416;2023-05-10T03:03:45;15.98;;;4.95;;
45077;SDS011;60508;42.622;25.416;2023-05-10T03:06:11;9.90;;;4.32;;
45077;SDS011;60508;42.622;25.416;2023-05-10T03:08:37;19.17;;;5.45;;
45077;SDS011;60508;42.622;25.416;2023-05-10T03:14:07;10.10;;;4.57;;
45077;SDS011;60508;42.622;25.416;2023-05-10T03:16:54;13.70;;;5.97;;
45077;SDS011;60508;42.622;25.416;2023-05-10T03:20:24;7.07;;;4.70;;
45077;SDS011;60508;42.622;25.416;2023-05-10T03:22:37;6.72;;;4.10;;
45077;SDS011;60508;42.622;25.416;2023-05-10T03:25:07;10.98;;;3.95;;
45077;SDS011;60508;42.622;25.416;2023-05-10T03:27:39;5.93;;;4.10;;
45077;SDS011;60508;42.622;25.416;2023-05-10T03:30:10;7.05;;;5.18;;
45077;SDS011;60508;42.622;25.416;2023-05-10T03:32:37;4.90;;;4.22;;
45077;SDS011;60508;42.622;25.416;2023-05-10T03:35:07;9.82;;;4.18;;
45077;SDS011;60508;42.622;25.416;2023-05-10T03:37:34;6.75;;;4.43;;
45077;SDS011;60508;42.622;25.416;2023-05-10T03:40:01;5.32;;;4.25;;
45077;SDS011;60508;42.622;25.416;2023-05-10T03:42:30;8.23;;;4.82;;
45077;SDS011;60508;42.622;25.416;2023-05-10T03:44:56;6.50;;;4.55;;
45077;SDS011;60508;42.622;25.416;2023-05-10T03:47:23;10.60;;;4.95;;
45077;SDS011;60508;42.622;25.416;2023-05-10T03:49:49;8.02;;;5.15;;
45077;SDS011;60508;42.622;25.416;2023-05-10T03:52:15;6.05;;;4.55;;
45077;SDS011;60508;42.622;25.416;2023-05-10T03:54:41;7.70;;;5.22;;
45077;SDS011;60508;42.622;25.416;2023-05-10T03:57:07;5.25;;;4.65;;
45077;SDS011;60508;42.622;25.416;2023-05-10T03:59:33;15.25;;;5.78;;
45077;SDS011;60508;42.622;25.416;2023-05-10T04:01:59;10.60;;;5.25;;
45077;SDS011;60508;42.622;25.416;2023-05-10T04:04:26;14.73;;;5.28;;
45077;SDS011;60508;42.622;25.416;2023-05-10T04:06:52;11.63;;;4.95;;
45077;SDS011;60508;42.622;25.416;2023-05-10T04:09:18;10.13;;;4.70;;
45077;SDS011;60508;42.622;25.416;2023-05-10T04:11:44;13.13;;;5.20;;
45077;SDS011;60508;42.622;25.416;2023-05-10T04:14:10;14.55;;;3.80;;
45077;SDS011;60508;42.622;25.416;2023-05-10T04:16:36;9.52;;;4.03;;
45077;SDS011;60508;42.622;25.416;2023-05-10T04:19:02;9.98;;;5.13;;
45077;SDS011;60508;42.622;25.416;2023-05-10T04:21:29;11.90;;;4.72;;
45077;SDS011;60508;42.622;25.416;2023-05-10T04:23:55;13.32;;;4.45;;
45077;SDS011;60508;42.622;25.416;2023-05-10T04:26:21;14.65;;;5.68;;
45077;SDS011;60508;42.622;25.416;2023-05-10T04:28:47;7.07;;;4.10;;
45077;SDS011;60508;42.622;25.416;2023-05-10T04:31:13;9.70;;;4.45;;
45077;SDS011;60508;42.622;25.416;2023-05-10T04:33:39;6.20;;;4.32;;
45077;SDS011;60508;42.622;25.416;2023-05-10T04:36:05;8.73;;;4.32;;
45077;SDS011;60508;42.622;25.416;2023-05-10T04:38:31;11.07;;;4.28;;
45077;SDS011;60508;42.622;25.416;2023-05-10T04:41:04;6.25;;;4.30;;
45077;SDS011;60508;42.622;25.416;2023-05-10T04:43:32;9.85;;;4.70;;
45077;SDS011;60508;42.622;25.416;2023-05-10T04:45:58;9.23;;;4.38;;
45077;SDS011;60508;42.622;25.416;2023-05-10T04:48:24;9.70;;;4.15;;
45077;SDS011;60508;42.622;25.416;2023-05-10T04:50:50;8.82;;;4.70;;
45077;SDS011;60508;42.622;25.416;2023-05-10T04:53:17;5.80;;;4.20;;
45077;SDS011;60508;42.622;25.416;2023-05-10T04:55:43;10.70;;;4.57;;
45077;SDS011;60508;42.622;25.416;2023-05-10T04:58:08;34.15;;;18.85;;
45077;SDS011;60508;42.622;25.416;2023-05-10T05:00:34;30.80;;;13.88;;
45077;SDS011;60508;42.622;25.416;2023-05-10T05:03:00;30.73;;;11.90;;
45077;SDS011;60508;42.622;25.416;2023-05-10T05:05:26;23.83;;;10.07;;
45077;SDS011;60508;42.622;25.416;2023-05-10T05:07:52;29.42;;;13.18;;
45077;SDS011;60508;42.622;25.416;2023-05-10T05:10:18;23.98;;;10.48;;
45077;SDS011;60508;42.622;25.416;2023-05-10T05:12:44;14.57;;;8.45;;
45077;SDS011;60508;42.622;25.416;2023-05-10T05:15:10;16.05;;;6.97;;
45077;SDS011;60508;42.622;25.416;2023-05-10T05:17:37;11.68;;;6.30;;
45077;SDS011;60508;42.622;25.416;2023-05-10T05:20:03;10.25;;;6.55;;
45077;SDS011;60508;42.622;25.416;2023-05-10T05:22:30;7.53;;;4.85;;
45077;SDS011;60508;42.622;25.416;2023-05-10T05:24:57;27.85;;;6.95;;
45077;SDS011;60508;42.622;25.416;2023-05-10T05:27:27;21.67;;;10.30;;
45077;SDS011;60508;42.622;25.416;2023-05-10T05:29:53;22.90;;;7.35;;
45077;SDS011;60508;42.622;25.416;2023-05-10T05:32:23;6.57;;;4.72;;
45077;SDS011;60508;42.622;25.416;2023-05-10T05:34:50;8.85;;;6.88;;
45077;SDS011;60508;42.622;25.416;2023-05-10T05:37:17;5.68;;;4.18;;
45077;SDS011;60508;42.622;25.416;2023-05-10T05:39:44;6.00;;;4.20;;
45077;SDS011;60508;42.622;25.416;2023-05-10T05:42:11;12.10;;;4.55;;
45077;SDS011;60508;42.622;25.416;2023-05-10T05:44:38;7.63;;;4.40;;
45077;SDS011;60508;42.622;25.416;2023-05-10T05:47:05;14.70;;;6.28;;
45077;SDS011;60508;42.622;25.416;2023-05-10T05:49:31;10.70;;;5.60;;
45077;SDS011;60508;42.622;25.416;2023-05-10T05:51:58;11.20;;;4.95;;
45077;SDS011;60508;42.622;25.416;2023-05-10T05:54:25;13.13;;;6.32;;
45077;SDS011;60508;42.622;25.416;2023-05-10T05:56:59;8.55;;;5.18;;
45077;SDS011;60508;42.622;25.416;2023-05-10T05:59:26;11.52;;;6.03;;
45077;SDS011;60508;42.622;25.416;2023-05-10T06:01:52;10.38;;;5.00;;
45077;SDS011;60508;42.622;25.416;2023-05-10T06:04:18;9.18;;;4.82;;
45077;SDS011;60508;42.622;25.416;2023-05-10T06:06:45;7.85;;;5.57;;
45077;SDS011;60508;42.622;25.416;2023-05-10T06:09:11;5.35;;;4.82;;
45077;SDS011;60508;42.622;25.416;2023-05-10T06:11:37;7.43;;;5.38;;
45077;SDS011;60508;42.622;25.416;2023-05-10T06:14:04;9.60;;;3.97;;
45077;SDS011;60508;42.622;25.416;2023-05-10T06:16:33;10.15;;;3.20;;
45077;SDS011;60508;42.622;25.416;2023-05-10T06:19:00;10.23;;;3.60;;
45077;SDS011;60508;42.622;25.416;2023-05-10T06:21:26;8.52;;;4.35;;
45077;SDS011;60508;42.622;25.416;2023-05-10T06:23:52;9.32;;;6.85;;
45077;SDS011;60508;42.622;25.416;2023-05-10T06:26:18;7.78;;;4.82;;
45077;SDS011;60508;42.622;25.416;2023-05-10T06:28:46;3.90;;;3.30;;
45077;SDS011;60508;42.622;25.416;2023-05-10T06:31:12;4.75;;;3.13;;
45077;SDS011;60508;42.622;25.416;2023-05-10T06:33:38;3.90;;;2.60;;
45077;SDS011;60508;42.622;25.416;2023-05-10T06:36:04;9.75;;;2.28;;
45077;SDS011;60508;42.622;25.416;2023-05-10T06:38:31;4.18;;;2.28;;
45077;SDS011;60508;42.622;25.416;2023-05-10T06:40:56;4.25;;;2.65;;
45077;SDS011;60508;42.622;25.416;2023-05-10T06:43:22;4.63;;;3.08;;
45077;SDS011;60508;42.622;25.416;2023-05-10T06:45:50;4.43;;;3.25;;
45077;SDS011;60508;42.622;25.416;2023-05-10T06:48:16;7.95;;;2.95;;
45077;SDS011;60508;42.622;25.416;2023-05-10T06:50:42;4.53;;;2.10;;
45077;SDS011;60508;42.622;25.416;2023-05-10T06:53:09;3.63;;;2.22;;
45077;SDS011;60508;42.622;25.416;2023-05-10T06:55:35;2.72;;;2.53;;
45077;SDS011;60508;42.622;25.416;2023-05-10T06:58:01;3.60;;;2.08;;
45077;SDS011;60508;42.622;25.416;2023-05-10T07:00:27;6.53;;;2.65;;
45077;SDS011;60508;42.622;25.416;2023-05-10T07:02:53;3.30;;;2.90;;
45077;SDS011;60508;42.622;25.416;2023-05-10T07:05:20;4.45;;;2.30;;
45077;SDS011;60508;42.622;25.416;2023-05-10T07:07:47;4.28;;;1.92;;
45077;SDS011;60508;42.622;25.416;2023-05-10T07:10:13;5.18;;;2.45;;
45077;SDS011;60508;42.622;25.416;2023-05-10T07:12:40;4.25;;;3.08;;
45077;SDS011;60508;42.622;25.416;2023-05-10T07:15:07;4.97;;;2.15;;
45077;SDS011;60508;42.622;25.416;2023-05-10T07:17:33;5.03;;;2.38;;
45077;SDS011;60508;42.622;25.416;2023-05-10T07:19:59;4.50;;;2.70;;
45077;SDS011;60508;42.622;25.416;2023-05-10T07:22:26;3.13;;;2.53;;
45077;SDS011;60508;42.622;25.416;2023-05-10T07:24:53;7.43;;;1.67;;
45077;SDS011;60508;42.622;25.416;2023-05-10T07:27:19;3.55;;;2.60;;
45077;SDS011;60508;42.622;25.416;2023-05-10T07:29:45;3.88;;;2.25;;
45077;SDS011;60508;42.622;25.416;2023-05-10T07:32:12;5.15;;;2.67;;
45077;SDS011;60508;42.622;25.416;2023-05-10T07:34:38;6.20;;;2.83;;
45077;SDS011;60508;42.622;25.416;2023-05-10T07:37:04;6.35;;;2.47;;
45077;SDS011;60508;42.622;25.416;2023-05-10T07:39:32;7.57;;;2.65;;
45077;SDS011;60508;42.622;25.416;2023-05-10T07:41:57;8.93;;;1.80;;
45077;SDS011;60508;42.622;25.416;2023-05-10T07:44:24;3.67;;;2.17;;
45077;SDS011;60508;42.622;25.416;2023-05-10T07:46:50;5.03;;;2.58;;
45077;SDS011;60508;42.622;25.416;2023-05-10T07:49:16;2.03;;;1.92;;
45077;SDS011;60508;42.622;25.416;2023-05-10T07:51:42;6.95;;;2.10;;
45077;SDS011;60508;42.622;25.416;2023-05-10T07:54:09;5.78;;;2.00;;
45077;SDS011;60508;42.622;25.416;2023-05-10T07:56:35;4.68;;;2.05;;
45077;SDS011;60508;42.622;25.416;2023-05-10T07:59:02;6.97;;;1.85;;
45077;SDS011;60508;42.622;25.416;2023-05-10T08:01:30;4.68;;;2.38;;
45077;SDS011;60508;42.622;25.416;2023-05-10T08:04:00;3.28;;;2.95;;
45077;SDS011;60508;42.622;25.416;2023-05-10T08:06:27;5.20;;;2.40;;
45077;SDS011;60508;42.622;25.416;2023-05-10T08:08:55;3.97;;;2.55;;
45077;SDS011;60508;42.622;25.416;2023-05-10T08:11:22;6.63;;;2.78;;
45077;SDS011;60508;42.622;25.416;2023-05-10T08:13:49;4.65;;;2.42;;
45077;SDS011;60508;42.622;25.416;2023-05-10T08:16:16;4.22;;;2.88;;
45077;SDS011;60508;42.622;25.416;2023-05-10T08:18:43;5.32;;;2.78;;
45077;SDS011;60508;42.622;25.416;2023-05-10T08:21:11;5.05;;;2.58;;
45077;SDS011;60508;42.622;25.416;2023-05-10T08:23:37;3.78;;;1.98;;
45077;SDS011;60508;42.622;25.416;2023-05-10T08:26:03;4.65;;;2.30;;
45077;SDS011;60508;42.622;25.416;2023-05-10T08:28:29;5.57;;;1.95;;
45077;SDS011;60508;42.622;25.416;2023-05-10T08:30:55;5.82;;;2.25;;
45077;SDS011;60508;42.622;25.416;2023-05-10T08:33:22;2.78;;;1.75;;
45077;SDS011;60508;42.622;25.416;2023-05-10T08:35:48;2.92;;;2.00;;
45077;SDS011;60508;42.622;25.416;2023-05-10T08:38:14;3.95;;;2.20;;
45077;SDS011;60508;42.622;25.416;2023-05-10T08:40:41;8.60;;;2.78;;
45077;SDS011;60508;42.622;25.416;2023-05-10T08:43:09;5.03;;;2.97;;
45077;SDS011;60508;42.622;25.416;2023-05-10T08:45:37;4.80;;;2.40;;
45077;SDS011;60508;42.622;25.416;2023-05-10T08:48:07;1.85;;;1.75;;
45077;SDS011;60508;42.622;25.416;2023-05-10T08:50:38;3.70;;;2.20;;
45077;SDS011;60508;42.622;25.416;2023-05-10T08:53:06;2.17;;;1.85;;
45077;SDS011;60508;42.622;25.416;2023-05-10T08:55:36;3.20;;;2.28;;
45077;SDS011;60508;42.622;25.416;2023-05-10T08:58:04;4.30;;;1.70;;
45077;SDS011;60508;42.622;25.416;2023-05-10T09:00:32;7.07;;;2.80;;
45077;SDS011;60508;42.622;25.416;2023-05-10T09:02:59;3.63;;;1.98;;
45077;SDS011;60508;42.622;25.416;2023-05-10T09:05:25;3.80;;;2.10;;
45077;SDS011;60508;42.622;25.416;2023-05-10T09:07:52;2.05;;;1.40;;
45077;SDS011;60508;42.622;25.416;2023-05-10T09:10:18;3.85;;;1.90;;
45077;SDS011;60508;42.622;25.416;2023-05-10T09:12:45;3.65;;;1.60;;
45077;SDS011;60508;42.622;25.416;2023-05-10T09:15:12;3.22;;;1.77;;
45077;SDS011;60508;42.622;25.416;2023-05-10T09:17:40;2.55;;;1.92;;
45077;SDS011;60508;42.622;25.416;2023-05-10T09:20:08;6.50;;;2.17;;
45077;SDS011;60508;42.622;25.416;2023-05-10T09:22:34;3.75;;;1.65;;
45077;SDS011;60508;42.622;25.416;2023-05-10T09:25:04;3.03;;;2.08;;
45077;SDS011;60508;42.622;25.416;2023-05-10T09:27:31;4.10;;;2.15;;
45077;SDS011;60508;42.622;25.416;2023-05-10T09:29:57;5.28;;;2.08;;
45077;SDS011;60508;42.622;25.416;2023-05-10T09:35:11;6.50;;;1.80;;
45077;SDS011;60508;42.622;25.416;2023-05-10T09:37:43;3.63;;;2.33;;
45077;SDS011;60508;42.622;25.416;2023-05-10T09:40:12;6.38;;;2.17;;
45077;SDS011;60508;42.622;25.416;2023-05-10T09:42:41;3.50;;;1.80;;
45077;SDS011;60508;42.622;25.416;2023-05-10T09:45:08;4.15;;;2.95;;
45077;SDS011;60508;42.622;25.416;2023-05-10T09:47:35;15.85;;;10.43;;
45077;SDS011;60508;42.622;25.416;2023-05-10T09:50:02;3.97;;;2.63;;
45077;SDS011;60508;42.622;25.416;2023-05-10T09:52:31;6.55;;;1.88;;
45077;SDS011;60508;42.622;25.416;2023-05-10T09:55:12;2.10;;;1.42;;
45077;SDS011;60508;42.622;25.416;2023-05-10T09:57:38;3.40;;;2.40;;
45077;SDS011;60508;42.622;25.416;2023-05-10T10:00:05;2.05;;;1.85;;
45077;SDS011;60508;42.622;25.416;2023-05-10T10:02:39;4.03;;;1.63;;
45077;SDS011;60508;42.622;25.416;2023-05-10T10:05:06;3.95;;;1.73;;
45077;SDS011;60508;42.622;25.416;2023-05-10T10:07:32;5.03;;;2.53;;
45077;SDS011;60508;42.622;25.416;2023-05-10T10:09:59;4.00;;;1.90;;
45077;SDS011;60508;42.622;25.416;2023-05-10T10:12:26;5.20;;;2.42;;
45077;SDS011;60508;42.622;25.416;2023-05-10T10:14:53;4.03;;;1.73;;
45077;SDS011;60508;42.622;25.416;2023-05-10T10:17:20;1.90;;;1.63;;
45077;SDS011;60508;42.622;25.416;2023-05-10T10:19:47;2.30;;;1.80;;
45077;SDS011;60508;42.622;25.416;2023-05-10T10:22:14;2.60;;;1.50;;
45077;SDS011;60508;42.622;25.416;2023-05-10T10:24:40;7.28;;;1.77;;
45077;SDS011;60508;42.622;25.416;2023-05-10T10:27:21;2.75;;;1.98;;
45077;SDS011;60508;42.622;25.416;2023-05-10T10:30:13;1.70;;;1.58;;
45077;SDS011;60508;42.622;25.416;2023-05-10T10:35:39;2.50;;;1.80;;
45077;SDS011;60508;42.622;25.416;2023-05-10T10:38:07;5.38;;;2.28;;
45077;SDS011;60508;42.622;25.416;2023-05-10T10:40:33;3.03;;;1.80;;
45077;SDS011;60508;42.622;25.416;2023-05-10T10:48:40;6.90;;;2.03;;
45077;SDS011;60508;42.622;25.416;2023-05-10T10:51:07;2.28;;;1.42;;
45077;SDS011;60508;42.622;25.416;2023-05-10T10:53:33;6.80;;;1.88;;
45077;SDS011;60508;42.622;25.416;2023-05-10T10:56:06;4.32;;;1.45;;
45077;SDS011;60508;42.622;25.416;2023-05-10T10:58:33;4.07;;;1.55;;
45077;SDS011;60508;42.622;25.416;2023-05-10T11:01:12;4.10;;;2.17;;
45077;SDS011;60508;42.622;25.416;2023-05-10T11:03:41;3.85;;;1.70;;
45077;SDS011;60508;42.622;25.416;2023-05-10T11:06:30;3.35;;;1.65;;
45077;SDS011;60508;42.622;25.416;2023-05-10T11:08:58;1.60;;;1.50;;
45077;SDS011;60508;42.622;25.416;2023-05-10T11:11:24;2.15;;;1.45;;
45077;SDS011;60508;42.622;25.416;2023-05-10T11:13:51;1.30;;;1.20;;
45077;SDS011;60508;42.622;25.416;2023-05-10T11:18:56;3.97;;;2.28;;
45077;SDS011;60508;42.622;25.416;2023-05-10T11:21:25;2.53;;;1.55;;
45077;SDS011;60508;42.622;25.416;2023-05-10T11:23:52;4.45;;;1.48;;
45077;SDS011;60508;42.622;25.416;2023-05-10T11:26:23;4.22;;;1.70;;
45077;SDS011;60508;42.622;25.416;2023-05-10T11:28:57;2.28;;;1.58;;
45077;SDS011;60508;42.622;25.416;2023-05-10T11:33:52;4.05;;;1.50;;
45077;SDS011;60508;42.622;25.416;2023-05-10T11:36:28;5.10;;;1.30;;
45077;SDS011;60508;42.622;25.416;2023-05-10T11:38:57;9.95;;;2.40;;
45077;SDS011;60508;42.622;25.416;2023-05-10T11:41:23;3.17;;;1.55;;
45077;SDS011;60508;42.622;25.416;2023-05-10T11:43:50;2.88;;;1.60;;
45077;SDS011;60508;42.622;25.416;2023-05-10T11:46:18;4.72;;;1.55;;
45077;SDS011;60508;42.622;25.416;2023-05-10T11:48:49;2.42;;;1.83;;
45077;SDS011;60508;42.622;25.416;2023-05-10T11:51:23;2.72;;;1.63;;
45077;SDS011;60508;42.622;25.416;2023-05-10T11:53:53;1.73;;;1.40;;
45077;SDS011;60508;42.622;25.416;2023-05-10T11:56:21;2.58;;;1.58;;
45077;SDS011;60508;42.622;25.416;2023-05-10T11:58:52;2.85;;;1.42;;
45077;SDS011;60508;42.622;25.416;2023-05-10T12:01:20;3.72;;;1.42;;
45077;SDS011;60508;42.622;25.416;2023-05-10T12:03:46;4.63;;;1.90;;
45077;SDS011;60508;42.622;25.416;2023-05-10T12:06:12;2.97;;;1.80;;
45077;SDS011;60508;42.622;25.416;2023-05-10T12:08:43;2.40;;;1.30;;
45077;SDS011;60508;42.622;25.416;2023-05-10T12:11:11;4.05;;;1.17;;
45077;SDS011;60508;42.622;25.416;2023-05-10T12:13:39;2.95;;;1.23;;
45077;SDS011;60508;42.622;25.416;2023-05-10T12:16:19;2.42;;;1.30;;
45077;SDS011;60508;42.622;25.416;2023-05-10T12:18:48;3.58;;;1.40;;
45077;SDS011;60508;42.622;25.416;2023-05-10T12:21:16;2.70;;;1.10;;
45077;SDS011;60508;42.622;25.416;2023-05-10T12:23:42;3.75;;;0.98;;
45077;SDS011;60508;42.622;25.416;2023-05-10T12:26:11;1.63;;;1.25;;
45077;SDS011;60508;42.622;25.416;2023-05-10T12:28:37;1.35;;;1.17;;
45077;SDS011;60508;42.622;25.416;2023-05-10T12:31:05;1.90;;;1.13;;
45077;SDS011;60508;42.622;25.416;2023-05-10T12:33:35;2.75;;;1.30;;
45077;SDS011;60508;42.622;25.416;2023-05-10T12:36:06;1.95;;;1.10;;
45077;SDS011;60508;42.622;25.416;2023-05-10T12:41:00;2.88;;;1.15;;
45077;SDS011;60508;42.622;25.416;2023-05-10T12:43:27;2.15;;;1.40;;
45077;SDS011;60508;42.622;25.416;2023-05-10T12:45:54;2.28;;;1.00;;
45077;SDS011;60508;42.622;25.416;2023-05-10T12:48:20;4.68;;;1.30;;
45077;SDS011;60508;42.622;25.416;2023-05-10T12:50:46;4.57;;;1.38;;
45077;SDS011;60508;42.622;25.416;2023-05-10T12:53:15;1.75;;;1.40;;
45077;SDS011;60508;42.622;25.416;2023-05-10T12:58:07;5.20;;;1.27;;
45077;SDS011;60508;42.622;25.416;2023-05-10T13:00:33;5.07;;;1.23;;
45077;SDS011;60508;42.622;25.416;2023-05-10T13:02:59;1.60;;;1.33;;
45077;SDS011;60508;42.622;25.416;2023-05-10T13:05:25;2.38;;;1.30;;
45077;SDS011;60508;42.622;25.416;2023-05-10T13:07:51;2.70;;;1.58;;
45077;SDS011;60508;42.622;25.416;2023-05-10T13:10:17;1.25;;;1.15;;
45077;SDS011;60508;42.622;25.416;2023-05-10T13:12:42;5.07;;;1.88;;
45077;SDS011;60508;42.622;25.416;2023-05-10T13:15:08;4.50;;;1.25;;
45077;SDS011;60508;42.622;25.416;2023-05-10T13:17:34;1.80;;;1.20;;
45077;SDS011;60508;42.622;25.416;2023-05-10T13:20:00;2.25;;;0.93;;
45077;SDS011;60508;42.622;25.416;2023-05-10T13:22:26;3.63;;;1.27;;
45077;SDS011;60508;42.622;25.416;2023-05-10T13:24:51;4.97;;;1.40;;
45077;SDS011;60508;42.622;25.416;2023-05-10T13:27:17;3.40;;;2.00;;
45077;SDS011;60508;42.622;25.416;2023-05-10T13:29:43;1.30;;;1.20;;
45077;SDS011;60508;42.622;25.416;2023-05-10T13:32:09;3.05;;;2.08;;
45077;SDS011;60508;42.622;25.416;2023-05-10T13:34:34;2.40;;;1.25;;
45077;SDS011;60508;42.622;25.416;2023-05-10T13:37:01;3.75;;;2.00;;
45077;SDS011;60508;42.622;25.416;2023-05-10T13:39:27;6.15;;;3.10;;
45077;SDS011;60508;42.622;25.416;2023-05-10T13:41:54;3.88;;;2.13;;
45077;SDS011;60508;42.622;25.416;2023-05-10T13:44:20;1.98;;;1.40;;
45077;SDS011;60508;42.622;25.416;2023-05-10T13:46:46;5.53;;;1.50;;
45077;SDS011;60508;42.622;25.416;2023-05-10T13:49:12;1.92;;;1.17;;
45077;SDS011;60508;42.622;25.416;2023-05-10T13:51:38;5.85;;;2.85;;
45077;SDS011;60508;42.622;25.416;2023-05-10T13:54:03;5.63;;;2.13;;
45077;SDS011;60508;42.622;25.416;2023-05-10T13:56:30;2.03;;;1.85;;
45077;SDS011;60508;42.622;25.416;2023-05-10T13:58:56;3.75;;;1.60;;
45077;SDS011;60508;42.622;25.416;2023-05-10T14:01:23;2.92;;;2.40;;
45077;SDS011;60508;42.622;25.416;2023-05-10T14:03:49;6.75;;;4.22;;
45077;SDS011;60508;42.622;25.416;2023-05-10T14:06:15;2.35;;;1.33;;
45077;SDS011;60508;42.622;25.416;2023-05-10T14:08:41;1.75;;;1.65;;
45077;SDS011;60508;42.622;25.416;2023-05-10T14:11:07;5.30;;;4.00;;
45077;SDS011;60508;42.622;25.416;2023-05-10T14:13:33;2.63;;;2.00;;
45077;SDS011;60508;42.622;25.416;2023-05-10T14:15:59;2.38;;;1.63;;
45077;SDS011;60508;42.622;25.416;2023-05-10T14:18:29;3.25;;;1.80;;
45077;SDS011;60508;42.622;25.416;2023-05-10T14:23:22;9.88;;;4.22;;
45077;SDS011;60508;42.622;25.416;2023-05-10T14:25:51;2.58;;;1.92;;
45077;SDS011;60508;42.622;25.416;2023-05-10T14:28:18;4.75;;;2.03;;
45077;SDS011;60508;42.622;25.416;2023-05-10T14:30:45;3.92;;;1.75;;
45077;SDS011;60508;42.622;25.416;2023-05-10T14:33:11;6.22;;;1.50;;
45077;SDS011;60508;42.622;25.416;2023-05-10T14:35:38;3.13;;;2.78;;
45077;SDS011;60508;42.622;25.416;2023-05-10T14:38:04;5.53;;;2.40;;
45077;SDS011;60508;42.622;25.416;2023-05-10T14:40:30;3.28;;;2.10;;
45077;SDS011;60508;42.622;25.416;2023-05-10T14:42:56;7.95;;;3.03;;
45077;SDS011;60508;42.622;25.416;2023-05-10T14:45:22;4.25;;;2.72;;
45077;SDS011;60508;42.622;25.416;2023-05-10T14:47:48;16.73;;;6.88;;
45077;SDS011;60508;42.622;25.416;2023-05-10T14:50:15;11.85;;;6.63;;
45077;SDS011;60508;42.622;25.416;2023-05-10T14:52:42;8.25;;;3.75;;
45077;SDS011;60508;42.622;25.416;2023-05-10T14:55:08;8.60;;;4.93;;
45077;SDS011;60508;42.622;25.416;2023-05-10T14:57:34;14.85;;;7.05;;
45077;SDS011;60508;42.622;25.416;2023-05-10T15:00:00;5.60;;;2.78;;
45077;SDS011;60508;42.622;25.416;2023-05-10T15:02:28;2.97;;;1.73;;
45077;SDS011;60508;42.622;25.416;2023-05-10T15:04:53;2.28;;;1.52;;
45077;SDS011;60508;42.622;25.416;2023-05-10T15:07:19;9.40;;;2.47;;
45077;SDS011;60508;42.622;25.416;2023-05-10T15:09:45;3.13;;;2.58;;
45077;SDS011;60508;42.622;25.416;2023-05-10T15:12:11;3.78;;;2.80;;
45077;SDS011;60508;42.622;25.416;2023-05-10T15:14:37;2.40;;;2.20;;
45077;SDS011;60508;42.622;25.416;2023-05-10T15:17:05;2.60;;;2.40;;
45077;SDS011;60508;42.622;25.416;2023-05-10T15:19:31;4.53;;;2.93;;
45077;SDS011;60508;42.622;25.416;2023-05-10T15:21:58;3.35;;;2.13;;